TAM3510 SBFZ-SBSL
Flight info
| Callsign | TAM3510 |
|---|---|
| Flight time | 1h 2m |
| Altitude | 34000 |
| Route | ISUPI UZ81 SLI |
| Aircraft | A320/M-SDE3FGHIRWY/LB1 |
Departure
| Time | 2026-05-07 21:59 |
|---|---|
| Airport | Pinto Martins International Airport (SBFZ) |
Arrival
| Time | 2026-05-07 23:02 |
|---|---|
| Airport | Marechal Cunha Machado International Airport (SBSL) |
| Time | Latitude | Longitude | Altitude | Speed | Heading |
|---|---|---|---|---|---|
| 2026-05-07 21:28 | -3.77906 | -38.53827 | 91 ft | 0 kts | 217° |
| 2026-05-07 21:48 | -3.77890 | -38.53816 | 92 ft | 4 kts | 218° |
| 2026-05-07 21:48 | -3.77875 | -38.53800 | 91 ft | 4 kts | 237° |
| 2026-05-07 21:49 | -3.77866 | -38.53777 | 92 ft | 4 kts | 273° |
| 2026-05-07 21:49 | -3.77871 | -38.53752 | 91 ft | 2 kts | 284° |
| 2026-05-07 21:49 | -3.77871 | -38.53750 | 92 ft | 0 kts | 284° |
| 2026-05-07 21:52 | -3.77869 | -38.53758 | 90 ft | 5 kts | 287° |
| 2026-05-07 21:52 | -3.77837 | -38.53799 | 91 ft | 7 kts | 313° |
| 2026-05-07 21:52 | -3.77804 | -38.53833 | 93 ft | 6 kts | 310° |
| 2026-05-07 21:53 | -3.77779 | -38.53867 | 91 ft | 6 kts | 306° |
| 2026-05-07 21:53 | -3.77759 | -38.53896 | 92 ft | 5 kts | 304° |
| 2026-05-07 21:53 | -3.77742 | -38.53920 | 91 ft | 4 kts | 304° |
| 2026-05-07 21:53 | -3.77725 | -38.53946 | 92 ft | 7 kts | 300° |
| 2026-05-07 21:54 | -3.77700 | -38.54023 | 92 ft | 16 kts | 286° |
| 2026-05-07 21:54 | -3.77665 | -38.54155 | 93 ft | 21 kts | 285° |
| 2026-05-07 21:54 | -3.77631 | -38.54289 | 91 ft | 12 kts | 281° |
| 2026-05-07 21:54 | -3.77590 | -38.54357 | 93 ft | 11 kts | 332° |
| 2026-05-07 21:55 | -3.77522 | -38.54380 | 91 ft | 10 kts | 340° |
| 2026-05-07 21:55 | -3.77487 | -38.54428 | 91 ft | 8 kts | 283° |
| 2026-05-07 21:55 | -3.77470 | -38.54480 | 92 ft | 7 kts | 292° |
| 2026-05-07 21:55 | -3.77439 | -38.54511 | 93 ft | 6 kts | 345° |
| 2026-05-07 21:56 | -3.77406 | -38.54505 | 94 ft | 0 kts | 18° |
| 2026-05-07 21:56 | -3.77405 | -38.54505 | 94 ft | 1 kts | 18° |
| 2026-05-07 21:57 | -3.77348 | -38.54484 | 94 ft | 11 kts | 19° |
| 2026-05-07 21:57 | -3.77322 | -38.54424 | 94 ft | 11 kts | 103° |
| 2026-05-07 21:57 | -3.77333 | -38.54381 | 94 ft | 0 kts | 105° |
| 2026-05-07 21:58 | -3.77342 | -38.54350 | 95 ft | 23 kts | 105° |
| 2026-05-07 21:58 | -3.77515 | -38.53696 | 93 ft | 117 kts | 105° |
| 2026-05-07 21:59 | -3.77759 | -38.52729 | 128 ft | 164 kts | 103° |
| 2026-05-07 21:59 | -3.77942 | -38.51976 | 479 ft | 169 kts | 103° |
| 2026-05-07 21:59 | -3.78348 | -38.50439 | 1383 ft | 174 kts | 105° |
| 2026-05-07 21:59 | -3.78577 | -38.49648 | 1878 ft | 176 kts | 107° |
| 2026-05-07 22:00 | -3.78824 | -38.48468 | 2709 ft | 171 kts | 91° |
| 2026-05-07 22:00 | -3.78504 | -38.47328 | 3427 ft | 177 kts | 60° |
| 2026-05-07 22:00 | -3.77596 | -38.46482 | 4024 ft | 185 kts | 29° |
| 2026-05-07 22:00 | -3.76281 | -38.46188 | 4382 ft | 208 kts | 359° |
| 2026-05-07 22:01 | -3.74820 | -38.46618 | 4680 ft | 230 kts | 330° |
| 2026-05-07 22:01 | -3.73493 | -38.47657 | 4827 ft | 258 kts | 316° |
| 2026-05-07 22:01 | -3.72183 | -38.49032 | 5028 ft | 288 kts | 313° |
| 2026-05-07 22:01 | -3.70804 | -38.50509 | 5877 ft | 291 kts | 313° |
| 2026-05-07 22:02 | -3.69346 | -38.51930 | 6749 ft | 294 kts | 321° |
| 2026-05-07 22:02 | -3.67700 | -38.53162 | 7603 ft | 297 kts | 327° |
| 2026-05-07 22:02 | -3.66026 | -38.54400 | 8443 ft | 301 kts | 319° |
| 2026-05-07 22:02 | -3.64643 | -38.56003 | 9302 ft | 306 kts | 302° |
| 2026-05-07 22:03 | -3.63702 | -38.57937 | 10104 ft | 311 kts | 294° |
| 2026-05-07 22:03 | -3.62836 | -38.59976 | 10427 ft | 333 kts | 292° |
| 2026-05-07 22:03 | -3.61925 | -38.62186 | 10872 ft | 347 kts | 292° |
| 2026-05-07 22:03 | -3.61002 | -38.64442 | 11572 ft | 352 kts | 292° |
| 2026-05-07 22:04 | -3.60063 | -38.66725 | 12322 ft | 356 kts | 293° |
| 2026-05-07 22:04 | -3.59122 | -38.68996 | 13045 ft | 359 kts | 293° |
| 2026-05-07 22:04 | -3.58150 | -38.71323 | 13759 ft | 362 kts | 293° |
| 2026-05-07 22:04 | -3.57167 | -38.73669 | 14388 ft | 365 kts | 293° |
| 2026-05-07 22:05 | -3.56192 | -38.75997 | 14981 ft | 369 kts | 294° |
| 2026-05-07 22:05 | -3.55193 | -38.78380 | 15578 ft | 372 kts | 293° |
| 2026-05-07 22:05 | -3.54191 | -38.80772 | 16227 ft | 374 kts | 293° |
| 2026-05-07 22:05 | -3.53180 | -38.83187 | 16844 ft | 377 kts | 294° |
| 2026-05-07 22:06 | -3.52159 | -38.85619 | 17437 ft | 380 kts | 294° |
| 2026-05-07 22:06 | -3.51135 | -38.88064 | 18060 ft | 382 kts | 294° |
| 2026-05-07 22:06 | -3.50105 | -38.90526 | 18592 ft | 384 kts | 294° |
| 2026-05-07 22:06 | -3.49066 | -38.93013 | 19121 ft | 386 kts | 293° |
| 2026-05-07 22:07 | -3.48038 | -38.95467 | 19635 ft | 388 kts | 294° |
| 2026-05-07 22:07 | -3.46989 | -38.97974 | 20165 ft | 389 kts | 293° |
| 2026-05-07 22:07 | -3.45941 | -39.00482 | 20686 ft | 391 kts | 294° |
| 2026-05-07 22:07 | -3.44887 | -39.03003 | 21161 ft | 393 kts | 294° |
| 2026-05-07 22:08 | -3.43838 | -39.05513 | 21628 ft | 396 kts | 294° |
| 2026-05-07 22:08 | -3.42772 | -39.08070 | 22094 ft | 398 kts | 294° |
| 2026-05-07 22:08 | -3.41700 | -39.10640 | 22555 ft | 400 kts | 294° |
| 2026-05-07 22:08 | -3.40620 | -39.13221 | 23037 ft | 402 kts | 294° |
| 2026-05-07 22:09 | -3.39545 | -39.15782 | 23467 ft | 405 kts | 294° |
| 2026-05-07 22:09 | -3.38444 | -39.18403 | 23835 ft | 407 kts | 294° |
| 2026-05-07 22:09 | -3.37341 | -39.21032 | 24193 ft | 409 kts | 293° |
| 2026-05-07 22:09 | -3.36248 | -39.23641 | 24543 ft | 412 kts | 293° |
| 2026-05-07 22:10 | -3.35138 | -39.26293 | 24900 ft | 414 kts | 293° |
| 2026-05-07 22:10 | -3.34018 | -39.28961 | 25256 ft | 416 kts | 293° |
| 2026-05-07 22:10 | -3.32894 | -39.31642 | 25611 ft | 418 kts | 293° |
| 2026-05-07 22:10 | -3.31761 | -39.34344 | 25963 ft | 420 kts | 293° |
| 2026-05-07 22:11 | -3.30643 | -39.37017 | 26296 ft | 423 kts | 292° |
| 2026-05-07 22:11 | -3.29556 | -39.39762 | 26625 ft | 425 kts | 288° |
| 2026-05-07 22:11 | -3.28883 | -39.42664 | 26947 ft | 428 kts | 278° |
| 2026-05-07 22:11 | -3.28729 | -39.45649 | 27268 ft | 430 kts | 268° |
| 2026-05-07 22:12 | -3.28940 | -39.48614 | 27582 ft | 432 kts | 266° |
| 2026-05-07 22:12 | -3.29167 | -39.51626 | 27906 ft | 434 kts | 266° |
| 2026-05-07 22:12 | -3.29392 | -39.54650 | 28222 ft | 436 kts | 266° |
| 2026-05-07 22:12 | -3.29611 | -39.57654 | 28549 ft | 438 kts | 266° |
| 2026-05-07 22:13 | -3.29831 | -39.60696 | 28948 ft | 438 kts | 265° |
| 2026-05-07 22:13 | -3.30052 | -39.63749 | 29297 ft | 440 kts | 265° |
| 2026-05-07 22:13 | -3.30276 | -39.66809 | 29622 ft | 441 kts | 265° |
| 2026-05-07 22:13 | -3.30501 | -39.69882 | 29939 ft | 444 kts | 265° |
| 2026-05-07 22:14 | -3.30731 | -39.72973 | 30218 ft | 446 kts | 265° |
| 2026-05-07 22:14 | -3.30962 | -39.76076 | 30478 ft | 448 kts | 265° |
| 2026-05-07 22:14 | -3.31187 | -39.79158 | 30737 ft | 449 kts | 265° |
| 2026-05-07 22:14 | -3.31415 | -39.82294 | 31003 ft | 451 kts | 265° |
| 2026-05-07 22:15 | -3.31643 | -39.85433 | 31275 ft | 452 kts | 265° |
| 2026-05-07 22:15 | -3.31871 | -39.88584 | 31576 ft | 452 kts | 266° |
| 2026-05-07 22:15 | -3.32093 | -39.91682 | 31952 ft | 451 kts | 266° |
| 2026-05-07 22:15 | -3.32315 | -39.94811 | 32324 ft | 450 kts | 266° |
| 2026-05-07 22:16 | -3.32544 | -39.97940 | 32704 ft | 449 kts | 266° |
| 2026-05-07 22:16 | -3.32773 | -40.01057 | 33073 ft | 448 kts | 266° |
| 2026-05-07 22:16 | -3.32996 | -40.04123 | 33437 ft | 447 kts | 266° |
| 2026-05-07 22:16 | -3.33222 | -40.07233 | 33791 ft | 447 kts | 266° |
| 2026-05-07 22:17 | -3.33449 | -40.10347 | 33922 ft | 445 kts | 266° |
| 2026-05-07 22:17 | -3.33672 | -40.13399 | 33944 ft | 434 kts | 266° |
| 2026-05-07 22:17 | -3.34113 | -40.19377 | 33945 ft | 428 kts | 266° |
| 2026-05-07 22:18 | -3.34754 | -40.28272 | 33944 ft | 433 kts | 266° |
| 2026-05-07 22:19 | -3.35184 | -40.34318 | 33946 ft | 436 kts | 266° |
| 2026-05-07 22:19 | -3.35624 | -40.40347 | 33949 ft | 436 kts | 266° |
| 2026-05-07 22:20 | -3.36077 | -40.46419 | 33944 ft | 437 kts | 266° |
| 2026-05-07 22:20 | -3.36300 | -40.52498 | 33945 ft | 436 kts | 276° |
| 2026-05-07 22:21 | -3.35206 | -40.58432 | 33944 ft | 436 kts | 282° |
| 2026-05-07 22:21 | -3.33974 | -40.64385 | 33947 ft | 436 kts | 282° |
| 2026-05-07 22:22 | -3.32753 | -40.70339 | 33944 ft | 436 kts | 281° |
| 2026-05-07 22:22 | -3.31541 | -40.76257 | 33946 ft | 436 kts | 282° |
| 2026-05-07 22:23 | -3.30311 | -40.82220 | 33950 ft | 436 kts | 282° |
| 2026-05-07 22:23 | -3.29083 | -40.88178 | 33950 ft | 436 kts | 282° |
| 2026-05-07 22:24 | -3.27861 | -40.94094 | 33947 ft | 436 kts | 282° |
| 2026-05-07 22:24 | -3.26627 | -41.00057 | 33957 ft | 436 kts | 282° |
| 2026-05-07 22:25 | -3.25399 | -41.05958 | 33957 ft | 435 kts | 282° |
| 2026-05-07 22:25 | -3.24169 | -41.11912 | 33958 ft | 436 kts | 282° |
| 2026-05-07 22:26 | -3.22953 | -41.17814 | 33959 ft | 435 kts | 282° |
| 2026-05-07 22:26 | -3.21725 | -41.23770 | 33960 ft | 435 kts | 282° |
| 2026-05-07 22:27 | -3.20497 | -41.29678 | 33950 ft | 435 kts | 282° |
| 2026-05-07 22:27 | -3.19265 | -41.35620 | 33953 ft | 435 kts | 282° |
| 2026-05-07 22:28 | -3.18040 | -41.41526 | 33950 ft | 435 kts | 282° |
| 2026-05-07 22:28 | -3.16811 | -41.47475 | 33950 ft | 435 kts | 282° |
| 2026-05-07 22:29 | -3.15588 | -41.53390 | 33948 ft | 435 kts | 282° |
| 2026-05-07 22:29 | -3.14360 | -41.59326 | 33947 ft | 435 kts | 281° |
| 2026-05-07 22:30 | -3.13128 | -41.65263 | 33946 ft | 435 kts | 281° |
| 2026-05-07 22:30 | -3.11903 | -41.71167 | 33943 ft | 435 kts | 282° |
| 2026-05-07 22:31 | -3.10674 | -41.77089 | 33946 ft | 435 kts | 281° |
| 2026-05-07 22:31 | -3.09453 | -41.83020 | 33948 ft | 434 kts | 281° |
| 2026-05-07 22:32 | -3.08253 | -41.88938 | 33943 ft | 433 kts | 281° |
| 2026-05-07 22:32 | -3.07061 | -41.94811 | 33945 ft | 433 kts | 281° |
| 2026-05-07 22:33 | -3.05854 | -42.00718 | 33951 ft | 433 kts | 281° |
| 2026-05-07 22:33 | -3.04660 | -42.06598 | 33950 ft | 433 kts | 281° |
| 2026-05-07 22:34 | -3.03464 | -42.12502 | 33949 ft | 432 kts | 281° |
| 2026-05-07 22:34 | -3.02255 | -42.18410 | 33947 ft | 432 kts | 281° |
| 2026-05-07 22:35 | -3.01018 | -42.24262 | 33951 ft | 432 kts | 282° |
| 2026-05-07 22:35 | -2.99769 | -42.30144 | 33950 ft | 432 kts | 282° |
| 2026-05-07 22:36 | -2.98526 | -42.36027 | 33948 ft | 431 kts | 282° |
| 2026-05-07 22:36 | -2.97300 | -42.41873 | 33950 ft | 431 kts | 282° |
| 2026-05-07 22:37 | -2.96064 | -42.47765 | 33948 ft | 431 kts | 282° |
| 2026-05-07 22:37 | -2.94843 | -42.53594 | 33947 ft | 431 kts | 282° |
| 2026-05-07 22:38 | -2.93606 | -42.59462 | 33750 ft | 428 kts | 282° |
| 2026-05-07 22:38 | -2.92997 | -42.62340 | 33503 ft | 425 kts | 282° |
| 2026-05-07 22:38 | -2.92387 | -42.65237 | 33237 ft | 422 kts | 282° |
| 2026-05-07 22:38 | -2.91788 | -42.68098 | 32771 ft | 418 kts | 281° |
| 2026-05-07 22:39 | -2.91191 | -42.70945 | 32255 ft | 416 kts | 281° |
| 2026-05-07 22:39 | -2.90593 | -42.73768 | 31758 ft | 413 kts | 281° |
| 2026-05-07 22:39 | -2.90000 | -42.76573 | 31254 ft | 411 kts | 281° |
| 2026-05-07 22:39 | -2.89417 | -42.79334 | 30783 ft | 409 kts | 280° |
| 2026-05-07 22:40 | -2.88833 | -42.82112 | 30297 ft | 407 kts | 280° |
| 2026-05-07 22:40 | -2.88250 | -42.84882 | 29793 ft | 404 kts | 280° |
| 2026-05-07 22:40 | -2.87671 | -42.87625 | 29302 ft | 400 kts | 280° |
| 2026-05-07 22:40 | -2.87107 | -42.90311 | 28861 ft | 396 kts | 280° |
| 2026-05-07 22:41 | -2.86543 | -42.92993 | 28423 ft | 391 kts | 280° |
| 2026-05-07 22:41 | -2.85982 | -42.95648 | 27975 ft | 387 kts | 281° |
| 2026-05-07 22:41 | -2.85423 | -42.98277 | 27545 ft | 383 kts | 281° |
| 2026-05-07 22:41 | -2.84872 | -43.00878 | 27107 ft | 380 kts | 281° |
| 2026-05-07 22:42 | -2.84335 | -43.03423 | 26682 ft | 377 kts | 281° |
| 2026-05-07 22:42 | -2.83795 | -43.05989 | 26248 ft | 374 kts | 281° |
| 2026-05-07 22:42 | -2.83261 | -43.08530 | 25797 ft | 372 kts | 281° |
| 2026-05-07 22:42 | -2.82728 | -43.11065 | 25356 ft | 370 kts | 281° |
| 2026-05-07 22:43 | -2.82202 | -43.13556 | 24894 ft | 369 kts | 282° |
| 2026-05-07 22:43 | -2.81672 | -43.16073 | 24431 ft | 368 kts | 282° |
| 2026-05-07 22:43 | -2.81143 | -43.18585 | 23956 ft | 368 kts | 282° |
| 2026-05-07 22:43 | -2.80616 | -43.21092 | 23474 ft | 368 kts | 282° |
| 2026-05-07 22:44 | -2.80096 | -43.23567 | 22953 ft | 367 kts | 282° |
| 2026-05-07 22:44 | -2.79568 | -43.26061 | 22481 ft | 365 kts | 282° |
| 2026-05-07 22:44 | -2.79042 | -43.28543 | 22017 ft | 363 kts | 282° |
| 2026-05-07 22:44 | -2.78518 | -43.31017 | 21557 ft | 361 kts | 283° |
| 2026-05-07 22:45 | -2.78001 | -43.33443 | 21110 ft | 360 kts | 283° |
| 2026-05-07 22:45 | -2.77482 | -43.35892 | 20654 ft | 359 kts | 283° |
| 2026-05-07 22:45 | -2.76965 | -43.38339 | 20208 ft | 357 kts | 283° |
| 2026-05-07 22:45 | -2.76457 | -43.40740 | 19770 ft | 356 kts | 283° |
| 2026-05-07 22:46 | -2.75942 | -43.43173 | 19321 ft | 356 kts | 283° |
| 2026-05-07 22:46 | -2.75433 | -43.45585 | 18881 ft | 355 kts | 283° |
| 2026-05-07 22:46 | -2.74926 | -43.48005 | 18439 ft | 355 kts | 283° |
| 2026-05-07 22:46 | -2.74427 | -43.50396 | 17974 ft | 355 kts | 283° |
| 2026-05-07 22:47 | -2.73920 | -43.52811 | 17524 ft | 353 kts | 283° |
| 2026-05-07 22:47 | -2.73413 | -43.55211 | 17091 ft | 352 kts | 283° |
| 2026-05-07 22:47 | -2.72906 | -43.57600 | 16667 ft | 350 kts | 283° |
| 2026-05-07 22:47 | -2.72401 | -43.59990 | 16234 ft | 350 kts | 282° |
| 2026-05-07 22:48 | -2.71900 | -43.62367 | 15820 ft | 349 kts | 282° |
| 2026-05-07 22:48 | -2.71567 | -43.63945 | 15536 ft | 348 kts | 282° |
| 2026-05-07 22:48 | -2.70904 | -43.67090 | 14991 ft | 348 kts | 282° |
| 2026-05-07 22:48 | -2.70404 | -43.69465 | 14578 ft | 348 kts | 282° |
| 2026-05-07 22:49 | -2.69907 | -43.71834 | 14163 ft | 348 kts | 282° |
| 2026-05-07 22:49 | -2.69579 | -43.73404 | 13888 ft | 348 kts | 282° |
| 2026-05-07 22:49 | -2.68919 | -43.76548 | 13296 ft | 347 kts | 282° |
| 2026-05-07 22:49 | -2.68582 | -43.78145 | 13020 ft | 346 kts | 282° |
| 2026-05-07 22:50 | -2.68090 | -43.80476 | 12615 ft | 344 kts | 282° |
| 2026-05-07 22:50 | -2.67595 | -43.82814 | 12203 ft | 343 kts | 282° |
| 2026-05-07 22:50 | -2.67100 | -43.85149 | 11778 ft | 341 kts | 282° |
| 2026-05-07 22:50 | -2.66609 | -43.87463 | 11371 ft | 339 kts | 282° |
| 2026-05-07 22:51 | -2.66174 | -43.89759 | 10955 ft | 338 kts | 275° |
| 2026-05-07 22:51 | -2.66230 | -43.92093 | 10555 ft | 335 kts | 260° |
| 2026-05-07 22:51 | -2.66874 | -43.94317 | 10318 ft | 327 kts | 248° |
| 2026-05-07 22:51 | -2.67665 | -43.96386 | 9987 ft | 313 kts | 248° |
| 2026-05-07 22:52 | -2.68423 | -43.98416 | 9370 ft | 308 kts | 249° |
| 2026-05-07 22:52 | -2.69155 | -44.00408 | 8868 ft | 302 kts | 249° |
| 2026-05-07 22:52 | -2.69874 | -44.02366 | 8456 ft | 302 kts | 249° |
| 2026-05-07 22:52 | -2.70599 | -44.04339 | 8037 ft | 302 kts | 248° |
| 2026-05-07 22:53 | -2.71323 | -44.06299 | 7656 ft | 299 kts | 248° |
| 2026-05-07 22:53 | -2.72040 | -44.08230 | 7279 ft | 297 kts | 248° |
| 2026-05-07 22:53 | -2.72765 | -44.10176 | 6855 ft | 297 kts | 248° |
| 2026-05-07 22:53 | -2.73483 | -44.12102 | 6522 ft | 293 kts | 248° |
| 2026-05-07 22:54 | -2.74186 | -44.13986 | 6096 ft | 290 kts | 247° |
| 2026-05-07 22:54 | -2.74892 | -44.15891 | 5410 ft | 287 kts | 247° |
| 2026-05-07 22:54 | -2.75570 | -44.17718 | 4897 ft | 279 kts | 247° |
| 2026-05-07 22:54 | -2.76243 | -44.19527 | 4432 ft | 275 kts | 247° |
| 2026-05-07 22:55 | -2.76894 | -44.21278 | 4253 ft | 258 kts | 247° |
| 2026-05-07 22:55 | -2.77497 | -44.22909 | 4179 ft | 242 kts | 247° |
| 2026-05-07 22:55 | -2.78073 | -44.24458 | 4090 ft | 234 kts | 247° |
| 2026-05-07 22:55 | -2.78525 | -44.26000 | 3991 ft | 234 kts | 263° |
| 2026-05-07 22:56 | -2.78344 | -44.27586 | 3913 ft | 226 kts | 289° |
| 2026-05-07 22:56 | -2.77545 | -44.28945 | 3572 ft | 230 kts | 311° |
| 2026-05-07 22:56 | -2.76515 | -44.30177 | 3255 ft | 231 kts | 310° |
| 2026-05-07 22:56 | -2.75501 | -44.31412 | 2929 ft | 233 kts | 310° |
| 2026-05-07 22:57 | -2.74478 | -44.32667 | 2736 ft | 229 kts | 310° |
| 2026-05-07 22:57 | -2.73357 | -44.33731 | 2649 ft | 217 kts | 337° |
| 2026-05-07 22:57 | -2.71939 | -44.33915 | 2566 ft | 198 kts | 16° |
| 2026-05-07 22:57 | -2.70799 | -44.33301 | 2511 ft | 178 kts | 41° |
| 2026-05-07 22:58 | -2.69888 | -44.32563 | 2501 ft | 158 kts | 42° |
| 2026-05-07 22:58 | -2.69068 | -44.31899 | 2397 ft | 146 kts | 41° |
| 2026-05-07 22:58 | -2.68304 | -44.31281 | 2231 ft | 141 kts | 41° |
| 2026-05-07 22:58 | -2.67554 | -44.30675 | 2058 ft | 137 kts | 41° |
| 2026-05-07 22:59 | -2.66810 | -44.30074 | 1892 ft | 136 kts | 39° |
| 2026-05-07 22:59 | -2.66075 | -44.29482 | 1717 ft | 135 kts | 39° |
| 2026-05-07 22:59 | -2.65343 | -44.28892 | 1547 ft | 134 kts | 39° |
| 2026-05-07 22:59 | -2.64624 | -44.28312 | 1369 ft | 134 kts | 39° |
| 2026-05-07 23:00 | -2.63897 | -44.27725 | 1200 ft | 134 kts | 39° |
| 2026-05-07 23:00 | -2.63168 | -44.27138 | 1027 ft | 134 kts | 38° |
| 2026-05-07 23:00 | -2.62439 | -44.26550 | 865 ft | 135 kts | 38° |
| 2026-05-07 23:00 | -2.61713 | -44.25965 | 702 ft | 136 kts | 39° |
| 2026-05-07 23:01 | -2.60969 | -44.25371 | 545 ft | 137 kts | 37° |
| 2026-05-07 23:01 | -2.60217 | -44.24768 | 304 ft | 138 kts | 34° |
| 2026-05-07 23:01 | -2.59477 | -44.24157 | 172 ft | 134 kts | 34° |
| 2026-05-07 23:01 | -2.58855 | -44.23660 | 163 ft | 90 kts | 39° |
| 2026-05-07 23:02 | -2.58502 | -44.23375 | 163 ft | 47 kts | 39° |
| 2026-05-07 23:02 | -2.58262 | -44.23179 | 160 ft | 40 kts | 39° |
| 2026-05-07 23:02 | -2.58121 | -44.23071 | 160 ft | 16 kts | 36° |
| 2026-05-07 23:02 | -2.58046 | -44.23035 | 160 ft | 5 kts | 83° |
| 2026-05-07 23:03 | -2.58065 | -44.23030 | 160 ft | 6 kts | 180° |
| 2026-05-07 23:03 | -2.58125 | -44.23073 | 160 ft | 11 kts | 217° |
| 2026-05-07 23:03 | -2.58184 | -44.23119 | 160 ft | 10 kts | 219° |
| 2026-05-07 23:03 | -2.58237 | -44.23162 | 160 ft | 9 kts | 219° |
| 2026-05-07 23:04 | -2.58284 | -44.23200 | 160 ft | 8 kts | 219° |
| 2026-05-07 23:04 | -2.58322 | -44.23231 | 161 ft | 6 kts | 219° |
| 2026-05-07 23:04 | -2.58349 | -44.23254 | 162 ft | 4 kts | 221° |
| 2026-05-07 23:04 | -2.58379 | -44.23279 | 162 ft | 10 kts | 219° |
| 2026-05-07 23:05 | -2.58431 | -44.23320 | 163 ft | 9 kts | 217° |
| 2026-05-07 23:05 | -2.58476 | -44.23355 | 163 ft | 8 kts | 226° |
| 2026-05-07 23:05 | -2.58475 | -44.23398 | 163 ft | 6 kts | 301° |
| 2026-05-07 23:05 | -2.58449 | -44.23429 | 163 ft | 5 kts | 313° |
| 2026-05-07 23:06 | -2.58440 | -44.23459 | 163 ft | 4 kts | 258° |
| 2026-05-07 23:06 | -2.58454 | -44.23496 | 163 ft | 10 kts | 249° |
| 2026-05-07 23:06 | -2.58483 | -44.23574 | 163 ft | 12 kts | 250° |
| 2026-05-07 23:06 | -2.58508 | -44.23646 | 164 ft | 10 kts | 250° |
| 2026-05-07 23:07 | -2.58514 | -44.23681 | 164 ft | 4 kts | 295° |
| 2026-05-07 23:07 | -2.58491 | -44.23689 | 164 ft | 3 kts | 345° |
| 2026-05-07 23:07 | -2.58473 | -44.23696 | 164 ft | 2 kts | 340° |
| 2026-05-07 23:07 | -2.58461 | -44.23700 | 164 ft | 1 kts | 341° |
| 2026-05-07 23:08 | -2.58458 | -44.23701 | 164 ft | 0 kts | 341° |